createdAt,value
2019-04-11T00:00:43.774Z,5.62
2019-04-11T00:03:13.633Z,6.35
2019-04-11T00:05:43.325Z,5.45
2019-04-11T00:08:12.267Z,6.78
2019-04-11T00:10:41.656Z,5.12
2019-04-11T00:13:18.887Z,6.40
2019-04-11T00:15:41.002Z,6.00
2019-04-11T00:18:10.329Z,6.67
2019-04-11T00:20:40.281Z,6.05
2019-04-11T00:23:10.148Z,6.00
2019-04-11T00:25:39.906Z,5.20
2019-04-11T00:28:09.882Z,6.03
2019-04-11T00:30:39.915Z,4.95
2019-04-11T00:33:09.841Z,5.87
2019-04-11T00:35:39.878Z,6.12
2019-04-11T00:38:09.796Z,5.53
2019-04-11T00:40:39.444Z,4.75
2019-04-11T00:43:09.474Z,5.50
2019-04-11T00:45:38.378Z,6.10
2019-04-11T00:48:07.427Z,5.08
2019-04-11T00:50:37.126Z,5.10
2019-04-11T00:53:06.058Z,5.95
2019-04-11T00:55:35.615Z,5.37
2019-04-11T00:58:05.588Z,5.25
2019-04-11T01:00:36.640Z,5.28
2019-04-11T01:03:06.391Z,6.12
2019-04-11T01:05:35.377Z,5.12
2019-04-11T01:08:05.133Z,5.50
2019-04-11T01:10:34.537Z,4.83
2019-04-11T01:13:03.270Z,5.28
2019-04-11T01:15:31.656Z,5.50
2019-04-11T01:17:59.961Z,6.25
2019-04-11T01:20:29.340Z,6.47
2019-04-11T01:25:28.475Z,5.55
2019-04-11T01:27:58.390Z,5.72
2019-04-11T01:30:34.534Z,5.47
2019-04-11T01:33:03.064Z,5.10
2019-04-11T01:35:31.809Z,5.62
2019-04-11T01:38:00.547Z,5.17
2019-04-11T01:40:29.826Z,4.35
2019-04-11T01:42:59.628Z,5.08
2019-04-11T01:45:28.025Z,5.83
2019-04-11T01:48:15.395Z,4.47
2019-04-11T01:50:45.255Z,5.05
2019-04-11T01:53:15.155Z,6.50
2019-04-11T01:55:43.671Z,5.37
2019-04-11T01:58:12.438Z,4.20
2019-04-11T02:01:12.602Z,4.83
2019-04-11T02:04:00.538Z,4.50
2019-04-11T02:06:29.969Z,3.87
2019-04-11T02:08:59.815Z,4.47
2019-04-11T02:11:29.644Z,4.42
2019-04-11T02:14:09.949Z,5.62
2019-04-11T02:16:29.349Z,6.10
2019-04-11T02:18:58.121Z,5.22
2019-04-11T02:21:27.473Z,4.28
2019-04-11T02:24:05.786Z,5.00
2019-04-11T02:26:35.662Z,4.85
2019-04-11T02:29:05.546Z,5.55
2019-04-11T02:31:34.944Z,6.37
2019-04-11T02:34:05.896Z,4.60
2019-04-11T02:36:36.437Z,5.15
2019-04-11T02:39:12.961Z,5.17
2019-04-11T02:41:40.129Z,5.15
2019-04-11T02:44:28.594Z,3.85
2019-04-11T02:46:50.162Z,4.70
2019-04-11T02:49:10.267Z,4.92
2019-04-11T02:51:39.127Z,4.28
2019-04-11T02:54:08.151Z,4.37
2019-04-11T02:56:37.864Z,5.35
2019-04-11T02:59:06.824Z,5.80
2019-04-11T03:01:36.445Z,4.90
2019-04-11T03:04:07.227Z,3.80
2019-04-11T03:06:36.422Z,4.80
2019-04-11T03:09:07.076Z,4.78
2019-04-11T03:11:36.163Z,4.67
2019-04-11T03:14:04.992Z,5.00
2019-04-11T03:16:46.177Z,5.08
2019-04-11T03:19:22.058Z,4.95
2019-04-11T03:21:41.403Z,5.62
2019-04-11T03:24:10.334Z,4.70
2019-04-11T03:26:37.976Z,5.65
2019-04-11T03:29:08.450Z,4.85
2019-04-11T03:39:27.825Z,4.75
2019-04-11T03:41:56.638Z,4.62
2019-04-11T03:44:18.811Z,4.60
2019-04-11T03:46:54.231Z,4.70
2019-04-11T03:49:24.986Z,5.08
2019-04-11T03:51:45.422Z,4.70
2019-04-11T03:54:14.270Z,5.17
2019-04-11T03:56:45.758Z,4.65
2019-04-11T03:59:16.626Z,4.42
2019-04-11T04:01:46.560Z,5.58
2019-04-11T04:04:19.333Z,5.87
2019-04-11T04:06:47.658Z,4.80
2019-04-11T04:09:18.605Z,4.40
2019-04-11T04:11:49.174Z,4.65
2019-04-11T04:14:44.530Z,4.47
2019-04-11T04:17:30.933Z,4.42
2019-04-11T04:20:19.444Z,4.65
2019-04-11T04:22:54.690Z,4.87
2019-04-11T04:25:24.339Z,4.95
2019-04-11T04:27:54.638Z,5.03
2019-04-11T04:30:24.807Z,4.60
2019-04-11T04:32:54.747Z,5.10
2019-04-11T04:35:25.594Z,5.03
2019-04-11T04:37:54.506Z,5.30
2019-04-11T04:40:42.463Z,4.15
2019-04-11T04:42:58.360Z,4.28
2019-04-11T04:45:27.724Z,6.22
2019-04-11T04:48:02.595Z,5.75
2019-04-11T04:50:28.510Z,4.35
2019-04-11T04:52:58.278Z,5.05
2019-04-11T04:55:30.146Z,4.70
2019-04-11T04:57:59.744Z,4.58
2019-04-11T05:00:31.616Z,5.05
2019-04-11T05:03:01.957Z,4.33
2019-04-11T05:05:30.951Z,5.85
2019-04-11T05:08:00.659Z,5.05
2019-04-11T05:10:30.615Z,5.62
2019-04-11T05:12:59.965Z,6.17
2019-04-11T05:15:28.982Z,6.55
2019-04-11T05:17:57.812Z,4.47
2019-04-11T05:20:26.590Z,6.03
2019-04-11T05:22:55.929Z,4.90
2019-04-11T05:25:24.882Z,5.33
2019-04-11T05:27:54.008Z,6.35
2019-04-11T05:30:23.168Z,5.05
2019-04-11T05:32:52.195Z,5.62
2019-04-11T05:35:21.090Z,6.12
2019-04-11T05:37:49.845Z,6.55
2019-04-11T05:40:18.609Z,5.15
2019-04-11T05:42:51.056Z,6.83
2019-04-11T05:45:21.125Z,6.62
2019-04-11T05:47:50.894Z,6.10
2019-04-11T05:50:29.715Z,5.55
2019-04-11T05:53:03.433Z,4.78
2019-04-11T05:55:34.231Z,5.00
2019-04-11T05:58:05.861Z,4.95
2019-04-11T06:01:01.666Z,4.83
2019-04-11T06:03:30.413Z,4.45
2019-04-11T06:06:18.135Z,4.95
2019-04-11T06:08:48.169Z,5.17
2019-04-11T06:11:39.128Z,5.45
2019-04-11T06:14:25.073Z,4.53
2019-04-11T06:16:57.638Z,4.20
2019-04-11T06:19:59.770Z,4.58
2019-04-11T06:22:29.718Z,3.95
2019-04-11T06:25:16.696Z,4.30
2019-04-11T06:27:51.826Z,4.10
2019-04-11T06:30:38.502Z,3.47
2019-04-11T06:33:22.751Z,4.10
2019-04-11T06:36:23.392Z,3.00
2019-04-11T06:39:03.645Z,4.00
2019-04-11T06:41:50.598Z,2.93
2019-04-11T06:44:28.091Z,4.23
2019-04-11T06:47:10.938Z,3.93
2019-04-11T06:49:55.075Z,3.70
2019-04-11T06:52:30.193Z,3.83
2019-04-11T06:55:26.926Z,4.53
2019-04-11T06:58:02.674Z,4.33
2019-04-11T07:00:31.817Z,4.63
2019-04-11T07:03:01.585Z,4.53
2019-04-11T07:05:33.203Z,4.37
2019-04-11T07:08:02.314Z,4.37
2019-04-11T07:10:36.659Z,4.60
2019-04-11T07:13:12.189Z,4.60
2019-04-11T07:15:44.138Z,4.97
2019-04-11T07:18:31.238Z,5.27
2019-04-11T07:21:06.313Z,4.50
2019-04-11T07:23:53.519Z,5.00
2019-04-11T07:26:29.384Z,4.40
2019-04-11T07:29:20.124Z,4.50
2019-04-11T07:31:58.802Z,5.30
2019-04-11T07:34:52.870Z,4.33
2019-04-11T07:37:48.875Z,4.97
2019-04-11T07:40:39.187Z,4.27
2019-04-11T07:43:19.377Z,4.63
2019-04-11T07:46:13.238Z,4.97
2019-04-11T07:48:42.718Z,4.60
2019-04-11T07:51:32.089Z,5.23
2019-04-11T07:54:02.763Z,4.67
2019-04-11T07:56:50.731Z,4.47
2019-04-11T07:59:51.205Z,4.97
2019-04-11T08:02:51.346Z,4.80
2019-04-11T08:05:38.759Z,4.80
2019-04-11T08:08:21.208Z,4.90
2019-04-11T08:11:08.043Z,4.73
2019-04-11T08:13:47.170Z,4.60
2019-04-11T08:16:39.168Z,4.43
2019-04-11T08:19:26.920Z,4.57
2019-04-11T08:22:21.067Z,4.50
2019-04-11T08:25:09.059Z,4.67
2019-04-11T08:27:52.136Z,4.47
2019-04-11T08:30:12.781Z,4.60
2019-04-11T08:32:48.169Z,5.23
2019-04-11T08:35:53.410Z,5.20
2019-04-11T08:38:27.223Z,4.27
2019-04-11T08:41:11.370Z,4.93
2019-04-11T08:43:41.496Z,5.20
2019-04-11T08:46:16.230Z,3.87
2019-04-11T08:48:48.956Z,5.20
2019-04-11T08:51:19.189Z,5.47
2019-04-11T08:54:05.324Z,4.80
2019-04-11T08:56:34.868Z,4.30
2019-04-11T08:59:44.012Z,4.20
2019-04-11T09:02:33.651Z,5.83
2019-04-11T09:05:33.682Z,4.17
2019-04-11T09:08:25.045Z,4.83
2019-04-11T09:11:16.934Z,4.67
2019-04-11T09:14:03.946Z,4.03
2019-04-11T09:16:50.105Z,3.40
2019-04-11T09:19:27.113Z,3.73
2019-04-11T09:22:15.114Z,3.87
2019-04-11T09:25:15.081Z,4.47
2019-04-11T09:27:46.805Z,4.03
2019-04-11T09:30:25.000Z,4.53
2019-04-11T09:33:15.042Z,4.40
2019-04-11T09:35:44.703Z,3.97
2019-04-11T09:38:13.945Z,4.90
2019-04-11T09:40:50.014Z,4.10
2019-04-11T09:43:31.878Z,4.27
2019-04-11T09:46:30.347Z,3.53
2019-04-11T09:49:23.697Z,4.23
2019-04-11T09:52:09.466Z,3.90
2019-04-11T09:54:45.125Z,4.37
2019-04-11T09:57:25.429Z,3.50
2019-04-11T10:00:14.385Z,4.70
2019-04-11T10:02:49.113Z,3.93
2019-04-11T10:05:22.441Z,4.43
2019-04-11T10:08:11.208Z,4.93
2019-04-11T10:10:57.642Z,4.03
2019-04-11T10:13:44.926Z,2.67
2019-04-11T10:16:33.846Z,5.10
2019-04-11T10:19:24.985Z,4.13
2019-04-11T10:21:58.975Z,4.30
2019-04-11T10:24:50.549Z,3.87
2019-04-11T10:27:44.810Z,3.70
2019-04-11T10:30:39.818Z,3.67
2019-04-11T10:33:17.023Z,3.60
2019-04-11T10:36:03.041Z,2.63
2019-04-11T10:38:31.513Z,3.63
2019-04-11T10:41:20.865Z,4.07
2019-04-11T10:43:49.632Z,4.20
2019-04-11T10:46:37.587Z,3.90
2019-04-11T10:49:19.972Z,3.67
2019-04-11T10:52:09.832Z,4.27
2019-04-11T10:54:39.354Z,4.37
2019-04-11T10:57:26.126Z,3.97
2019-04-11T10:59:54.890Z,3.33
2019-04-11T11:03:13.778Z,4.07
2019-04-11T11:05:45.097Z,4.03
2019-04-11T11:08:23.576Z,3.63
2019-04-11T11:10:53.701Z,3.70
2019-04-11T11:13:40.782Z,4.43
2019-04-11T11:16:09.437Z,3.83
2019-04-11T11:19:26.253Z,4.00
2019-04-11T11:21:32.170Z,4.23
2019-04-11T11:24:33.769Z,3.93
2019-04-11T11:27:05.408Z,3.80
2019-04-11T11:29:56.203Z,3.17
2019-04-11T11:32:27.920Z,3.33
2019-04-11T11:35:15.146Z,4.33
2019-04-11T11:37:50.067Z,3.93
2019-04-11T11:40:45.445Z,3.60
2019-04-11T11:43:17.478Z,3.20
2019-04-11T11:46:04.464Z,3.60
2019-04-11T11:48:54.060Z,3.60
2019-04-11T11:51:29.563Z,4.30
2019-04-11T11:54:09.357Z,3.63
2019-04-11T11:56:40.178Z,3.50
2019-04-11T11:59:15.519Z,4.40
2019-04-11T12:01:54.342Z,4.07
2019-04-11T12:04:48.568Z,3.80
2019-04-11T12:07:18.936Z,4.13
2019-04-11T12:10:09.418Z,3.20
2019-04-11T12:12:50.467Z,4.10
2019-04-11T12:15:51.146Z,3.83
2019-04-11T12:18:28.684Z,4.60
2019-04-11T12:21:01.050Z,3.93
2019-04-11T12:23:58.131Z,4.37
2019-04-11T12:26:18.517Z,3.73
2019-04-11T12:29:05.982Z,3.73
2019-04-11T12:31:37.084Z,3.43
2019-04-11T12:34:22.537Z,3.73
2019-04-11T12:36:53.317Z,4.27
2019-04-11T12:39:39.474Z,3.47
2019-04-11T12:42:12.953Z,3.13
2019-04-11T12:44:59.727Z,3.07
2019-04-11T12:47:32.576Z,3.30
2019-04-11T12:50:29.559Z,4.17
2019-04-11T12:53:03.403Z,4.43
2019-04-11T12:55:54.549Z,3.53
2019-04-11T12:58:28.430Z,4.13
2019-04-11T13:01:09.208Z,3.57
2019-04-11T13:04:06.927Z,4.07
2019-04-11T13:06:54.447Z,3.57
2019-04-11T13:09:43.852Z,3.60
2019-04-11T13:12:22.574Z,3.63
2019-04-11T13:14:58.828Z,3.17
2019-04-11T13:17:31.007Z,3.70
2019-04-11T13:20:17.726Z,4.00
2019-04-11T13:22:47.474Z,3.90
2019-04-11T13:25:38.563Z,3.63
2019-04-11T13:28:07.679Z,3.63
2019-04-11T13:31:07.616Z,3.70
2019-04-11T13:33:36.386Z,4.17
2019-04-11T13:36:16.206Z,3.50
2019-04-11T13:38:46.714Z,3.70
2019-04-11T13:41:34.203Z,3.47
2019-04-11T13:44:17.985Z,3.90
2019-04-11T13:46:58.569Z,3.90
2019-04-11T13:49:46.429Z,3.93
2019-04-11T13:52:34.267Z,3.60
2019-04-11T13:55:10.894Z,4.40
2019-04-11T13:57:59.089Z,3.07
2019-04-11T14:00:39.287Z,3.47
2019-04-11T14:03:25.886Z,3.30
2019-04-11T14:05:55.510Z,3.30
2019-04-11T14:08:28.631Z,3.33
2019-04-11T14:11:07.249Z,3.37
2019-04-11T14:13:40.931Z,3.57
2019-04-11T14:16:18.340Z,3.53
2019-04-11T14:19:11.646Z,3.63
2019-04-11T14:21:38.545Z,3.83
2019-04-11T14:24:45.259Z,3.70
2019-04-11T14:27:20.690Z,3.30
2019-04-11T14:30:11.447Z,3.77
2019-04-11T14:32:44.206Z,3.67
2019-04-11T14:35:31.090Z,3.43
2019-04-11T14:38:05.260Z,3.03
2019-04-11T14:41:02.289Z,3.53
2019-04-11T14:43:33.669Z,3.43
2019-04-11T14:46:24.692Z,3.37
2019-04-11T14:48:59.402Z,3.37
2019-04-11T14:51:58.406Z,3.73
2019-04-11T14:54:49.852Z,3.30
2019-04-11T14:57:56.045Z,3.67
2019-04-11T15:00:35.930Z,3.73
2019-04-11T15:03:23.932Z,3.30
2019-04-11T15:06:06.997Z,3.87
2019-04-11T15:08:57.861Z,3.53
2019-04-11T15:11:47.382Z,3.47
2019-04-11T15:14:35.805Z,4.03
2019-04-11T15:17:13.217Z,3.13
2019-04-11T15:19:44.785Z,3.60
2019-04-11T15:22:40.777Z,4.10
2019-04-11T15:25:17.671Z,3.67
2019-04-11T15:27:59.674Z,3.73
2019-04-11T15:30:28.689Z,4.07
2019-04-11T15:33:15.762Z,4.30
2019-04-11T15:35:45.291Z,4.23
2019-04-11T15:38:35.555Z,4.00
2019-04-11T15:41:05.281Z,3.73
2019-04-11T15:44:13.940Z,4.07
2019-04-11T15:46:43.193Z,3.73
2019-04-11T15:49:31.464Z,3.83
2019-04-11T15:52:07.570Z,4.30
2019-04-11T15:54:55.174Z,3.60
2019-04-11T15:57:35.201Z,3.77
2019-04-11T16:00:25.474Z,3.67
2019-04-11T16:03:01.629Z,4.07
2019-04-11T16:05:49.158Z,3.50
2019-04-11T16:08:22.715Z,2.97
2019-04-11T16:10:57.337Z,4.47
2019-04-11T16:13:43.703Z,3.70
2019-04-11T16:16:12.813Z,3.70
2019-04-11T16:19:08.247Z,2.83
2019-04-11T16:21:56.081Z,3.63
2019-04-11T16:24:29.992Z,3.70
2019-04-11T16:27:24.069Z,3.80
2019-04-11T16:29:57.972Z,3.90
2019-04-11T16:32:27.085Z,3.93
2019-04-11T16:35:05.790Z,3.30
2019-04-11T16:37:34.517Z,4.73
2019-04-11T16:40:23.139Z,3.90
2019-04-11T16:42:59.201Z,3.97
2019-04-11T16:45:49.937Z,4.10
2019-04-11T16:48:18.502Z,3.50
2019-04-11T16:50:46.825Z,4.00
2019-04-11T16:53:15.165Z,3.77
2019-04-11T16:55:43.750Z,4.00
2019-04-11T16:58:15.129Z,3.93
2019-04-11T17:00:43.585Z,4.03
2019-04-11T17:03:12.414Z,4.10
2019-04-11T17:05:42.973Z,3.73
2019-04-11T17:08:30.130Z,2.80
2019-04-11T17:11:14.553Z,4.10
2019-04-11T17:13:43.374Z,4.63
2019-04-11T17:16:13.806Z,3.70
2019-04-11T17:18:42.212Z,3.63
2019-04-11T17:21:11.050Z,4.43
2019-04-11T17:23:39.376Z,4.10
2019-04-11T17:26:08.238Z,4.47
2019-04-11T17:28:36.999Z,3.67
2019-04-11T17:31:05.837Z,3.87
2019-04-11T17:33:34.741Z,4.53
2019-04-11T17:36:03.509Z,3.50
2019-04-11T17:38:31.822Z,3.70
2019-04-11T17:41:00.734Z,4.27
2019-04-11T17:43:29.491Z,3.30
2019-04-11T17:45:57.815Z,3.93
2019-04-11T17:48:26.122Z,4.57
2019-04-11T17:50:54.889Z,4.80
2019-04-11T17:53:24.983Z,5.27
2019-04-11T17:55:54.917Z,4.27
2019-04-11T17:58:26.783Z,4.60
2019-04-11T18:01:00.536Z,4.77
2019-04-11T18:03:29.490Z,4.33
2019-04-11T18:05:58.420Z,3.50
2019-04-11T18:08:27.169Z,4.10
2019-04-11T18:10:55.960Z,3.97
2019-04-11T18:13:28.008Z,3.73
2019-04-11T18:15:56.110Z,3.83
2019-04-11T18:18:24.869Z,4.13
2019-04-11T18:20:53.679Z,3.50
2019-04-11T18:23:22.505Z,4.00
2019-04-11T18:25:51.806Z,3.67
2019-04-11T18:28:21.891Z,3.97
2019-04-11T18:30:53.822Z,4.70
2019-04-11T18:33:22.086Z,3.70
2019-04-11T18:35:50.842Z,4.40
2019-04-11T18:38:19.240Z,3.97
2019-04-11T18:40:48.081Z,4.93
2019-04-11T18:43:16.932Z,4.93
2019-04-11T18:45:45.761Z,4.83
2019-04-11T18:48:14.157Z,4.33
2019-04-11T18:50:43.395Z,4.43
2019-04-11T18:53:12.286Z,4.33
2019-04-11T18:55:40.697Z,5.00
2019-04-11T18:58:09.085Z,3.70
2019-04-11T19:00:38.312Z,4.13
2019-04-11T19:03:08.037Z,4.03
2019-04-11T19:05:37.487Z,4.00
2019-04-11T19:08:05.883Z,4.70
2019-04-11T19:10:34.202Z,4.90
2019-04-11T19:13:03.227Z,4.97
2019-04-11T19:15:31.590Z,4.03
2019-04-11T19:18:06.295Z,4.33
2019-04-11T19:20:30.185Z,4.47
2019-04-11T19:22:58.949Z,3.90
2019-04-11T19:25:27.253Z,4.80
2019-04-11T19:27:57.273Z,4.17
2019-04-11T19:30:26.367Z,4.17
2019-04-11T19:32:55.486Z,4.40
2019-04-11T19:35:24.234Z,4.43
2019-04-11T19:37:52.529Z,4.30
2019-04-11T19:40:20.860Z,4.03
2019-04-11T19:42:49.812Z,4.00
2019-04-11T19:45:19.405Z,4.57
2019-04-11T19:47:51.719Z,4.40
2019-04-11T19:50:18.321Z,4.80
2019-04-11T19:52:47.093Z,4.33
2019-04-11T19:55:25.149Z,4.10
2019-04-11T19:57:53.969Z,5.30
2019-04-11T20:00:22.814Z,3.90
2019-04-11T20:02:51.768Z,4.13
2019-04-11T20:05:21.568Z,5.10
2019-04-11T20:07:50.132Z,4.60
2019-04-11T20:10:18.921Z,5.30
2019-04-11T20:12:47.249Z,6.93
2019-04-11T20:15:15.585Z,4.43
2019-04-11T20:17:45.018Z,4.33
2019-04-11T20:20:14.132Z,4.43
2019-04-11T20:22:42.881Z,5.80
2019-04-11T20:25:16.023Z,6.23
2019-04-11T20:27:41.955Z,6.27
2019-04-11T20:30:11.093Z,7.63
2019-04-11T20:32:39.418Z,6.73
2019-04-11T20:35:10.110Z,8.00
2019-04-11T20:37:42.251Z,7.17
2019-04-11T20:40:11.785Z,8.00
2019-04-11T20:42:40.827Z,6.43
2019-04-11T20:45:10.185Z,5.13
2019-04-11T20:47:38.532Z,5.43
2019-04-11T20:50:08.956Z,7.10
2019-04-11T20:52:37.709Z,5.20
2019-04-11T20:55:08.986Z,4.43
2019-04-11T20:57:37.250Z,5.83
2019-04-11T21:00:06.519Z,5.47
2019-04-11T21:02:34.830Z,5.40
2019-04-11T21:05:03.213Z,5.33
2019-04-11T21:07:32.000Z,4.53
2019-04-11T21:10:04.056Z,4.73
2019-04-11T21:12:31.404Z,5.33
2019-04-11T21:14:59.726Z,5.63
2019-04-11T21:17:28.044Z,4.50
2019-04-11T21:19:56.353Z,4.43
2019-04-11T21:22:25.113Z,4.33
2019-04-11T21:24:53.890Z,4.90
2019-04-11T21:27:22.701Z,4.67
2019-04-11T21:29:51.720Z,4.20
2019-04-11T21:32:20.474Z,4.37
2019-04-11T21:34:49.331Z,4.40
2019-04-11T21:37:17.695Z,4.53
2019-04-11T21:39:46.061Z,6.85
2019-04-11T21:42:14.384Z,4.50
2019-04-11T21:44:43.154Z,4.70
2019-04-11T21:47:11.545Z,4.33
2019-04-11T21:49:40.301Z,3.97
2019-04-11T21:52:12.059Z,5.73
2019-04-11T21:54:39.155Z,6.07
2019-04-11T21:57:07.917Z,4.40
2019-04-11T21:59:36.236Z,4.70
2019-04-11T22:02:07.063Z,7.47
2019-04-11T22:04:35.388Z,6.13
2019-04-11T22:07:03.890Z,7.30
2019-04-11T22:09:35.496Z,9.87
2019-04-11T22:12:07.650Z,5.87
2019-04-11T22:14:33.765Z,6.03
2019-04-11T22:17:02.094Z,4.78
2019-04-11T22:19:30.928Z,4.47
2019-04-11T22:21:59.677Z,5.00
2019-04-11T22:24:28.065Z,7.03
2019-04-11T22:26:56.905Z,5.12
2019-04-11T22:29:25.680Z,5.05
2019-04-11T22:31:55.966Z,4.83
2019-04-11T22:34:56.767Z,3.92
2019-04-11T22:37:27.795Z,4.17
2019-04-11T22:39:55.724Z,5.10
2019-04-11T22:42:24.031Z,4.60
2019-04-11T22:44:52.817Z,4.58
2019-04-11T22:47:21.142Z,4.47
2019-04-11T22:49:49.470Z,4.53
2019-04-11T22:52:18.229Z,4.97
2019-04-11T22:54:47.053Z,5.10
2019-04-11T22:57:15.847Z,4.00
2019-04-11T22:59:45.290Z,5.15
2019-04-11T23:02:36.082Z,3.95
2019-04-11T23:05:05.276Z,3.70
2019-04-11T23:07:33.610Z,4.22
2019-04-11T23:10:01.926Z,3.70
2019-04-11T23:12:30.274Z,3.95
2019-04-11T23:14:59.079Z,3.98
2019-04-11T23:17:27.828Z,4.10
2019-04-11T23:19:56.596Z,4.28
2019-04-11T23:22:25.412Z,4.03
2019-04-11T23:24:53.733Z,3.50
2019-04-11T23:27:22.495Z,4.08
2019-04-11T23:29:51.241Z,3.77
2019-04-11T23:32:21.226Z,3.98
2019-04-11T23:34:52.791Z,3.45
2019-04-11T23:37:21.697Z,3.83
2019-04-11T23:39:51.066Z,3.87
2019-04-11T23:42:20.261Z,3.12
2019-04-11T23:44:50.490Z,4.87
2019-04-11T23:47:20.171Z,4.22
2019-04-11T23:49:49.246Z,2.90
2019-04-11T23:52:17.996Z,3.83
2019-04-11T23:54:46.753Z,3.22
2019-04-11T23:57:15.527Z,3.08
2019-04-11T23:59:43.863Z,2.70
